createdAt,value
2022-08-17T00:09:27.844Z,15.88
2022-08-17T00:19:30.334Z,15.02
2022-08-17T00:29:32.384Z,15.00
2022-08-17T00:39:34.568Z,16.17
2022-08-17T00:49:36.657Z,14.75
2022-08-17T01:00:02.330Z,14.25
2022-08-17T01:10:08.966Z,13.10
2022-08-17T01:20:43.061Z,14.02
2022-08-17T01:30:58.508Z,14.35
2022-08-17T01:41:05.882Z,15.95
2022-08-17T01:51:08.535Z,15.60
2022-08-17T02:01:12.448Z,15.02
2022-08-17T02:11:22.275Z,13.63
2022-08-17T02:21:29.139Z,13.15
2022-08-17T02:31:32.013Z,13.13
2022-08-17T02:41:34.797Z,14.13
2022-08-17T02:51:39.266Z,13.30
2022-08-17T03:01:43.475Z,13.85
2022-08-17T03:11:45.639Z,13.88
2022-08-17T03:21:54.835Z,14.88
2022-08-17T03:32:02.347Z,13.85
2022-08-17T03:42:32.188Z,13.88
2022-08-17T03:52:53.781Z,13.35
2022-08-17T04:02:59.187Z,14.85
2022-08-17T04:13:01.565Z,13.02
2022-08-17T04:23:13.045Z,12.40
2022-08-17T04:33:22.739Z,10.73
2022-08-17T04:43:28.501Z,10.20
2022-08-17T04:53:30.778Z,9.93
2022-08-17T05:03:38.725Z,9.60
2022-08-17T05:13:42.213Z,10.45
2022-08-17T05:23:45.522Z,10.40
2022-08-17T05:33:57.215Z,9.23
2022-08-17T05:44:05.486Z,9.32
2022-08-17T05:54:18.034Z,9.82
2022-08-17T06:04:38.719Z,8.55
2022-08-17T06:14:49.236Z,7.97
2022-08-17T06:24:57.375Z,7.35
2022-08-17T06:35:08.468Z,12.07
2022-08-17T06:45:37.714Z,8.15
2022-08-17T06:55:54.790Z,5.68
2022-08-17T07:06:14.363Z,6.97
2022-08-17T07:16:29.321Z,7.85
2022-08-17T07:26:32.800Z,6.85
2022-08-17T07:36:38.218Z,25.60
2022-08-17T07:47:12.247Z,7.30
2022-08-17T07:57:14.331Z,6.90
2022-08-17T08:07:16.489Z,8.02
2022-08-17T08:17:24.306Z,7.35
2022-08-17T08:27:48.962Z,6.85
2022-08-17T08:38:28.379Z,6.13
2022-08-17T08:49:09.961Z,5.97
2022-08-17T08:59:23.304Z,6.03
2022-08-17T09:09:39.948Z,7.55
2022-08-17T09:19:51.868Z,5.85
2022-08-17T09:30:02.792Z,5.78
2022-08-17T09:40:42.944Z,7.15
2022-08-17T09:51:04.034Z,6.40
2022-08-17T10:01:35.932Z,6.43
2022-08-17T10:12:17.633Z,7.28
2022-08-17T10:22:47.834Z,6.32
2022-08-17T10:32:59.392Z,6.85
2022-08-17T10:43:39.098Z,6.45
2022-08-17T10:53:43.040Z,5.30
2022-08-17T11:03:54.975Z,5.95
2022-08-17T11:14:10.149Z,5.30
2022-08-17T11:24:21.772Z,6.45
2022-08-17T11:34:28.101Z,6.68
2022-08-17T11:44:54.423Z,5.88
2022-08-17T11:55:24.056Z,5.68
2022-08-17T12:05:30.355Z,5.90
2022-08-17T12:15:36.788Z,6.15
2022-08-17T12:25:51.059Z,5.85
2022-08-17T12:35:59.745Z,5.65
2022-08-17T12:46:15.253Z,7.07
2022-08-17T12:56:20.885Z,6.25
2022-08-17T13:06:30.254Z,6.78
2022-08-17T13:16:36.631Z,6.63
2022-08-17T13:26:51.586Z,6.68
2022-08-17T13:37:26.381Z,6.13
2022-08-17T13:47:33.458Z,6.13
2022-08-17T13:57:39.135Z,6.30
2022-08-17T14:07:46.760Z,6.45
2022-08-17T14:17:53.895Z,7.00
2022-08-17T14:27:59.705Z,6.43
2022-08-17T14:38:06.202Z,6.20
2022-08-17T14:48:09.683Z,7.43
2022-08-17T14:58:15.016Z,7.25
2022-08-17T15:08:24.624Z,6.43
2022-08-17T15:18:30.468Z,6.82
2022-08-17T15:28:37.855Z,6.90
2022-08-17T15:38:44.878Z,6.97
2022-08-17T15:48:50.162Z,7.65
2022-08-17T15:58:55.632Z,7.50
2022-08-17T16:08:59.590Z,6.88
2022-08-17T16:19:01.848Z,8.13
2022-08-17T16:29:06.802Z,7.72
2022-08-17T16:39:11.261Z,7.22
2022-08-17T16:49:35.896Z,8.93
2022-08-17T16:59:43.798Z,9.48
2022-08-17T17:09:55.678Z,9.43
2022-08-17T17:20:27.526Z,9.50
2022-08-17T17:30:38.633Z,10.65
2022-08-17T17:40:51.587Z,10.18
2022-08-17T17:51:01.729Z,10.65
2022-08-17T18:01:46.023Z,11.13
2022-08-17T18:12:07.059Z,10.88
2022-08-17T18:22:14.891Z,12.20
2022-08-17T18:32:42.271Z,12.35
2022-08-17T18:43:06.801Z,12.40
2022-08-17T18:53:26.613Z,12.55
2022-08-17T19:03:42.474Z,13.43
2022-08-17T19:14:03.820Z,11.93
2022-08-17T19:24:19.876Z,12.55
2022-08-17T19:34:33.507Z,12.60
2022-08-17T19:44:42.831Z,13.40
2022-08-17T19:55:00.143Z,13.88
2022-08-17T20:05:17.695Z,13.60
2022-08-17T20:15:26.177Z,14.05
2022-08-17T20:25:38.605Z,14.30
2022-08-17T20:36:01.493Z,14.85
2022-08-17T20:46:51.601Z,14.48
2022-08-17T20:56:57.536Z,14.60
2022-08-17T21:07:29.322Z,13.60
2022-08-17T21:17:42.486Z,11.43
2022-08-17T21:28:07.422Z,12.40
2022-08-17T21:38:19.581Z,11.88
2022-08-17T21:48:27.514Z,13.43
2022-08-17T21:58:38.435Z,14.23
2022-08-17T22:09:26.359Z,13.75
2022-08-17T22:19:35.164Z,16.38
2022-08-17T22:29:54.350Z,15.82
2022-08-17T22:39:59.573Z,12.75
2022-08-17T22:50:05.832Z,12.98
2022-08-17T23:00:33.655Z,14.32
2022-08-17T23:10:37.641Z,17.52
2022-08-17T23:20:42.429Z,16.25
2022-08-17T23:30:48.546Z,14.50
2022-08-17T23:40:51.984Z,14.45
2022-08-17T23:51:04.013Z,14.30
